createdAt,value
2023-03-29T00:00:34.378Z,-3.28
2023-03-29T00:03:16.529Z,-3.30
2023-03-29T00:05:44.911Z,-3.34
2023-03-29T00:08:14.772Z,-3.39
2023-03-29T00:10:43.581Z,-3.39
2023-03-29T00:13:11.656Z,-3.39
2023-03-29T00:15:39.626Z,-3.36
2023-03-29T00:18:07.733Z,-3.36
2023-03-29T00:20:35.985Z,-3.35
2023-03-29T00:23:03.947Z,-3.34
2023-03-29T00:25:34.169Z,-3.30
2023-03-29T00:28:02.304Z,-3.29
2023-03-29T00:30:30.361Z,-3.27
2023-03-29T00:32:58.498Z,-3.28
2023-03-29T00:35:27.338Z,-3.33
2023-03-29T00:37:55.445Z,-3.37
2023-03-29T00:40:23.612Z,-3.39
2023-03-29T00:42:51.896Z,-3.45
2023-03-29T00:45:22.449Z,-3.50
2023-03-29T00:47:58.033Z,-3.53
2023-03-29T00:50:44.062Z,-3.55
2023-03-29T00:53:31.967Z,-3.58
2023-03-29T00:56:03.107Z,-3.63
2023-03-29T00:58:38.565Z,-3.66
2023-03-29T01:01:08.993Z,-3.72
2023-03-29T01:03:46.572Z,-3.79
2023-03-29T01:06:16.318Z,-3.86
2023-03-29T01:08:47.952Z,-3.90
2023-03-29T01:11:22.356Z,-3.95
2023-03-29T01:13:52.013Z,-3.98
2023-03-29T01:16:20.190Z,-3.98
2023-03-29T01:18:48.483Z,-3.98
2023-03-29T01:21:36.491Z,-3.95
2023-03-29T01:24:13.724Z,-3.91
2023-03-29T01:26:51.367Z,-3.91
2023-03-29T01:29:41.672Z,-3.90
2023-03-29T01:32:13.315Z,-3.90
2023-03-29T01:35:10.596Z,-3.87
2023-03-29T01:37:58.903Z,-3.85
2023-03-29T01:40:28.322Z,-3.85
2023-03-29T01:43:02.385Z,-3.87
2023-03-29T01:45:37.074Z,-3.88
2023-03-29T01:48:11.630Z,-3.90
2023-03-29T01:51:05.431Z,-3.93
2023-03-29T01:53:50.745Z,-3.96
2023-03-29T01:56:21.965Z,-4.00
2023-03-29T01:59:01.300Z,-4.07
2023-03-29T02:01:31.555Z,-4.15
2023-03-29T02:04:02.898Z,-4.24
2023-03-29T02:06:33.671Z,-4.30
2023-03-29T02:09:01.896Z,-4.36
2023-03-29T02:11:30.401Z,-4.41
2023-03-29T02:13:58.617Z,-4.45
2023-03-29T02:16:26.809Z,-4.48
2023-03-29T02:18:56.518Z,-4.51
2023-03-29T02:21:35.967Z,-4.54
2023-03-29T02:24:06.536Z,-4.58
2023-03-29T02:26:34.658Z,-4.62
2023-03-29T02:29:02.598Z,-4.63
2023-03-29T02:31:41.333Z,-4.65
2023-03-29T02:34:31.616Z,-4.69
2023-03-29T02:37:01.967Z,-4.73
2023-03-29T02:39:32.351Z,-4.73
2023-03-29T02:42:00.572Z,-4.73
2023-03-29T02:44:30.710Z,-4.76
2023-03-29T02:47:29.688Z,-4.80
2023-03-29T02:49:59.253Z,-4.88
2023-03-29T02:52:33.653Z,-4.94
2023-03-29T02:55:03.307Z,-4.99
2023-03-29T02:57:32.609Z,-4.97
2023-03-29T03:00:01.250Z,-4.94
2023-03-29T03:02:30.347Z,-4.92
2023-03-29T03:04:59.341Z,-4.91
2023-03-29T03:07:28.888Z,-4.89
2023-03-29T03:09:58.021Z,-4.90
2023-03-29T03:12:26.567Z,-4.93
2023-03-29T03:14:54.762Z,-4.97
2023-03-29T03:17:23.357Z,-5.03
2023-03-29T03:19:51.528Z,-5.11
2023-03-29T03:22:19.530Z,-5.19
2023-03-29T03:24:47.589Z,-5.25
2023-03-29T03:27:16.767Z,-5.27
2023-03-29T03:29:44.887Z,-5.29
2023-03-29T03:32:18.680Z,-5.30
2023-03-29T03:35:02.281Z,-5.28
2023-03-29T03:37:30.468Z,-5.23
2023-03-29T03:39:58.562Z,-5.22
2023-03-29T03:42:29.957Z,-5.23
2023-03-29T03:44:59.120Z,-5.27
2023-03-29T03:47:31.932Z,-5.32
2023-03-29T03:50:13.982Z,-5.38
2023-03-29T03:52:41.993Z,-5.46
2023-03-29T03:55:12.293Z,-5.51
2023-03-29T03:57:48.617Z,-5.51
2023-03-29T04:00:23.551Z,-5.46
2023-03-29T04:03:30.322Z,-5.37
2023-03-29T04:06:01.925Z,-5.33
2023-03-29T04:08:36.195Z,-5.33
2023-03-29T04:11:39.408Z,-5.34
2023-03-29T04:14:07.919Z,-5.38
2023-03-29T04:17:05.307Z,-5.40
2023-03-29T04:19:51.553Z,-5.43
2023-03-29T04:22:20.696Z,-5.46
2023-03-29T04:24:50.263Z,-5.52
2023-03-29T04:27:39.688Z,-5.59
2023-03-29T04:30:16.224Z,-5.68
2023-03-29T04:33:05.381Z,-5.81
2023-03-29T04:35:38.217Z,-5.87
2023-03-29T04:38:12.259Z,-5.94
2023-03-29T04:40:41.089Z,-5.93
2023-03-29T04:43:14.668Z,-5.85
2023-03-29T04:49:00.805Z,-5.72
2023-03-29T04:51:38.139Z,-5.69
2023-03-29T04:54:06.832Z,-5.62
2023-03-29T04:56:58.844Z,-5.54
2023-03-29T04:59:45.366Z,-5.48
2023-03-29T05:02:43.034Z,-5.40
2023-03-29T05:05:12.854Z,-5.36
2023-03-29T05:07:41.909Z,-5.31
2023-03-29T05:10:15.238Z,-5.25
2023-03-29T05:12:44.636Z,-5.19
2023-03-29T05:15:13.700Z,-5.11
2023-03-29T05:17:42.769Z,-5.02
2023-03-29T05:20:13.295Z,-4.92
2023-03-29T05:22:45.647Z,-4.85
2023-03-29T05:25:20.656Z,-4.77
2023-03-29T05:27:48.784Z,-4.69
2023-03-29T05:30:18.167Z,-4.61
2023-03-29T05:32:54.187Z,-4.51
2023-03-29T05:35:29.499Z,-4.42
2023-03-29T05:37:58.361Z,-4.32
2023-03-29T05:40:26.882Z,-4.21
2023-03-29T05:43:16.537Z,-4.04
2023-03-29T05:45:44.891Z,-3.84
2023-03-29T05:48:13.591Z,-3.68
2023-03-29T05:50:49.360Z,-3.55
2023-03-29T05:53:20.857Z,-3.40
2023-03-29T05:55:49.806Z,-3.25
2023-03-29T05:58:19.255Z,-3.12
2023-03-29T06:00:49.747Z,-2.97
2023-03-29T06:03:29.989Z,-2.82
2023-03-29T06:06:02.522Z,-2.69
2023-03-29T06:08:31.759Z,-2.55
2023-03-29T06:11:12.202Z,-2.41
2023-03-29T06:14:02.785Z,-2.23
2023-03-29T06:16:32.920Z,-2.06
2023-03-29T06:19:01.171Z,-1.91
2023-03-29T06:21:30.479Z,-1.77
2023-03-29T06:23:59.778Z,-1.60
2023-03-29T06:26:29.789Z,-1.44
2023-03-29T06:28:58.404Z,-1.25
2023-03-29T06:31:27.465Z,-1.06
2023-03-29T06:34:00.310Z,-0.81
2023-03-29T06:36:59.200Z,0.24
2023-03-29T06:39:34.554Z,1.10
2023-03-29T06:42:24.270Z,1.87
2023-03-29T06:45:11.074Z,2.48
2023-03-29T06:47:40.947Z,3.03
2023-03-29T06:50:09.709Z,3.39
2023-03-29T06:53:00.494Z,3.87
2023-03-29T06:55:28.899Z,4.09
2023-03-29T06:57:59.680Z,4.14
2023-03-29T07:00:30.000Z,4.02
2023-03-29T07:03:13.521Z,3.96
2023-03-29T07:05:42.361Z,3.93
2023-03-29T07:08:15.334Z,4.20
2023-03-29T07:10:52.866Z,4.47
2023-03-29T07:13:27.741Z,4.85
2023-03-29T07:15:56.785Z,5.09
2023-03-29T07:18:57.735Z,5.18
2023-03-29T07:21:46.159Z,5.15
2023-03-29T07:24:15.849Z,5.37
2023-03-29T07:26:52.130Z,5.64
2023-03-29T07:29:29.024Z,5.85
2023-03-29T07:31:57.968Z,6.08
2023-03-29T07:34:44.455Z,6.19
2023-03-29T07:37:18.800Z,6.26
2023-03-29T07:39:47.415Z,6.43
2023-03-29T07:42:42.462Z,6.68
2023-03-29T07:45:11.933Z,6.86
2023-03-29T07:47:50.110Z,7.06
2023-03-29T07:50:18.359Z,6.88
2023-03-29T07:52:46.612Z,6.75
2023-03-29T07:55:15.781Z,6.93
2023-03-29T07:58:00.451Z,7.03
2023-03-29T08:00:28.836Z,7.32
2023-03-29T08:03:23.216Z,7.60
2023-03-29T08:05:52.165Z,7.77
2023-03-29T08:08:21.008Z,8.09
2023-03-29T08:10:58.639Z,8.24
2023-03-29T08:13:42.719Z,8.26
2023-03-29T08:16:16.881Z,8.58
2023-03-29T08:18:51.503Z,8.72
2023-03-29T08:21:20.475Z,8.78
2023-03-29T08:23:49.960Z,8.80
2023-03-29T08:26:49.119Z,9.09
2023-03-29T08:29:18.867Z,9.14
2023-03-29T08:31:47.688Z,9.02
2023-03-29T08:34:17.011Z,9.00
2023-03-29T08:37:25.994Z,8.92
2023-03-29T08:39:55.367Z,9.11
2023-03-29T08:43:02.126Z,9.42
2023-03-29T08:45:38.600Z,9.47
2023-03-29T08:48:25.090Z,9.44
2023-03-29T08:50:54.968Z,9.68
2023-03-29T08:53:30.760Z,9.83
2023-03-29T08:56:09.139Z,10.11
2023-03-29T08:58:57.839Z,10.33
2023-03-29T09:01:30.950Z,10.43
2023-03-29T09:04:06.861Z,10.57
2023-03-29T09:06:49.382Z,10.48
2023-03-29T09:09:22.683Z,10.61
2023-03-29T09:12:22.031Z,10.62
2023-03-29T09:14:53.757Z,10.61
2023-03-29T09:17:27.980Z,10.57
2023-03-29T09:20:41.097Z,10.87
2023-03-29T09:23:30.692Z,11.09
2023-03-29T09:26:32.636Z,10.95
2023-03-29T09:29:25.524Z,11.25
2023-03-29T09:31:54.111Z,11.32
2023-03-29T09:34:23.806Z,11.36
2023-03-29T09:37:04.729Z,11.79
2023-03-29T09:39:32.950Z,11.97
2023-03-29T09:42:09.437Z,12.00
2023-03-29T09:44:48.533Z,11.97
2023-03-29T09:47:30.268Z,11.84
2023-03-29T09:50:03.128Z,11.83
2023-03-29T09:52:31.609Z,11.84
2023-03-29T09:55:08.123Z,11.97
2023-03-29T09:57:44.651Z,11.56
2023-03-29T10:00:14.939Z,11.73
2023-03-29T10:02:50.262Z,11.92
2023-03-29T10:05:18.584Z,11.75
2023-03-29T10:07:54.463Z,11.85
2023-03-29T10:10:33.368Z,11.80
2023-03-29T10:13:05.044Z,11.85
2023-03-29T10:15:33.145Z,11.86
2023-03-29T10:18:03.746Z,11.91
2023-03-29T10:20:34.359Z,11.86
2023-03-29T10:23:02.432Z,11.84
2023-03-29T10:25:32.992Z,12.00
2023-03-29T10:28:06.567Z,12.01
2023-03-29T10:30:37.305Z,11.90
2023-03-29T10:33:05.456Z,11.75
2023-03-29T10:35:37.521Z,11.83
2023-03-29T10:38:07.967Z,11.86
2023-03-29T10:40:48.412Z,12.12
2023-03-29T10:43:19.597Z,12.20
2023-03-29T10:45:49.161Z,12.38
2023-03-29T10:48:17.927Z,12.69
2023-03-29T10:50:50.628Z,12.54
2023-03-29T10:53:29.747Z,12.70
2023-03-29T10:56:00.878Z,12.91
2023-03-29T10:58:47.940Z,12.53
2023-03-29T11:01:26.299Z,12.47
2023-03-29T11:04:23.178Z,12.49
2023-03-29T11:07:10.711Z,12.17
2023-03-29T11:10:01.160Z,11.94
2023-03-29T11:12:42.038Z,11.64
2023-03-29T11:15:16.328Z,11.60
2023-03-29T11:18:10.118Z,11.75
2023-03-29T11:20:49.870Z,11.88
2023-03-29T11:23:40.403Z,12.09
2023-03-29T11:26:15.340Z,12.22
2023-03-29T11:28:53.241Z,12.08
2023-03-29T11:31:51.682Z,11.97
2023-03-29T11:35:05.609Z,11.57
2023-03-29T11:37:33.747Z,11.74
2023-03-29T11:40:20.687Z,12.01
2023-03-29T11:42:49.637Z,12.02
2023-03-29T11:45:44.695Z,12.20
2023-03-29T11:48:28.835Z,12.37
2023-03-29T11:51:11.739Z,12.49
2023-03-29T11:53:43.087Z,12.73
2023-03-29T11:56:17.175Z,12.68
2023-03-29T11:58:50.638Z,12.25
2023-03-29T12:01:35.154Z,11.93
2023-03-29T12:04:08.008Z,11.90
2023-03-29T12:07:24.355Z,12.03
2023-03-29T12:09:59.233Z,12.16
2023-03-29T12:12:30.262Z,12.07
2023-03-29T12:15:05.606Z,12.50
2023-03-29T12:17:51.811Z,12.93
2023-03-29T12:20:29.577Z,12.58
2023-03-29T12:23:01.199Z,12.83
2023-03-29T12:25:59.368Z,12.67
2023-03-29T12:28:36.882Z,12.44
2023-03-29T12:31:21.703Z,12.53
2023-03-29T12:34:08.010Z,12.43
2023-03-29T12:37:49.396Z,12.28
2023-03-29T12:41:00.426Z,12.30
2023-03-29T12:43:48.164Z,12.10
2023-03-29T12:46:33.834Z,11.93
2023-03-29T12:49:10.461Z,11.80
2023-03-29T12:51:40.911Z,11.84
2023-03-29T12:54:28.854Z,11.82
2023-03-29T12:57:01.514Z,12.15
2023-03-29T12:59:40.759Z,12.42
2023-03-29T13:02:15.213Z,12.48
2023-03-29T13:04:44.006Z,12.39
2023-03-29T13:07:24.178Z,12.10
2023-03-29T13:10:02.418Z,12.23
2023-03-29T13:12:42.456Z,12.66
2023-03-29T13:15:19.498Z,13.09
2023-03-29T13:18:13.027Z,13.19
2023-03-29T13:21:03.317Z,12.58
2023-03-29T13:23:39.127Z,12.33
2023-03-29T13:26:11.517Z,12.23
2023-03-29T13:28:43.415Z,11.87
2023-03-29T13:31:26.788Z,11.96
2023-03-29T13:34:15.135Z,11.95
2023-03-29T13:37:21.152Z,12.10
2023-03-29T13:39:53.894Z,12.26
2023-03-29T13:42:37.147Z,12.33
2023-03-29T13:45:32.685Z,12.13
2023-03-29T13:48:24.250Z,11.84
2023-03-29T13:50:58.002Z,11.24
2023-03-29T13:53:30.176Z,10.88
2023-03-29T13:55:58.624Z,10.87
2023-03-29T13:59:19.320Z,10.78
2023-03-29T14:01:57.499Z,10.80
2023-03-29T14:04:28.993Z,10.99
2023-03-29T14:06:57.789Z,11.26
2023-03-29T14:09:30.273Z,11.50
2023-03-29T14:12:01.571Z,11.80
2023-03-29T14:14:30.711Z,11.95
2023-03-29T14:17:00.261Z,12.05
2023-03-29T14:19:33.316Z,11.93
2023-03-29T14:22:02.152Z,11.46
2023-03-29T14:24:41.420Z,11.24
2023-03-29T14:27:11.631Z,11.10
2023-03-29T14:29:40.164Z,10.87
2023-03-29T14:32:17.009Z,10.72
2023-03-29T14:34:49.662Z,10.76
2023-03-29T14:37:24.833Z,10.90
2023-03-29T14:39:53.657Z,10.93
2023-03-29T14:42:25.234Z,10.88
2023-03-29T14:44:59.149Z,10.86
2023-03-29T14:47:28.793Z,10.89
2023-03-29T14:50:00.962Z,10.86
2023-03-29T14:52:29.868Z,10.90
2023-03-29T14:55:02.406Z,10.93
2023-03-29T14:57:34.641Z,10.82
2023-03-29T15:00:17.388Z,10.68
2023-03-29T15:02:49.989Z,10.52
2023-03-29T15:05:25.415Z,10.56
2023-03-29T15:07:56.372Z,10.48
2023-03-29T15:10:24.486Z,10.38
2023-03-29T15:12:52.897Z,10.44
2023-03-29T15:15:21.516Z,10.47
2023-03-29T15:17:52.329Z,10.41
2023-03-29T15:20:36.699Z,10.37
2023-03-29T15:23:17.163Z,10.38
2023-03-29T15:25:58.862Z,10.42
2023-03-29T15:28:28.516Z,10.48
2023-03-29T15:31:14.407Z,10.48
2023-03-29T15:33:42.633Z,10.39
2023-03-29T15:36:12.731Z,10.32
2023-03-29T15:38:44.587Z,10.16
2023-03-29T15:41:14.570Z,10.19
2023-03-29T15:43:43.036Z,10.19
2023-03-29T15:46:12.482Z,10.18
2023-03-29T15:48:46.417Z,10.19
2023-03-29T15:51:15.236Z,10.21
2023-03-29T15:53:43.334Z,10.21
2023-03-29T15:56:17.682Z,10.24
2023-03-29T15:58:45.920Z,10.18
2023-03-29T16:01:23.853Z,10.07
2023-03-29T16:03:52.404Z,10.03
2023-03-29T16:06:23.051Z,10.03
2023-03-29T16:08:51.433Z,10.23
2023-03-29T16:11:20.309Z,10.33
2023-03-29T16:13:48.857Z,10.36
2023-03-29T16:16:27.890Z,10.40
2023-03-29T16:18:56.778Z,10.25
2023-03-29T16:21:29.534Z,10.10
2023-03-29T16:24:04.630Z,9.95
2023-03-29T16:26:32.767Z,9.82
2023-03-29T16:29:01.108Z,9.68
2023-03-29T16:31:29.316Z,9.59
2023-03-29T16:34:00.990Z,9.48
2023-03-29T16:36:31.063Z,9.37
2023-03-29T16:38:59.724Z,9.29
2023-03-29T16:41:28.273Z,9.19
2023-03-29T16:43:56.838Z,9.09
2023-03-29T16:46:25.237Z,9.00
2023-03-29T16:48:53.836Z,8.90
2023-03-29T16:51:22.411Z,8.79
2023-03-29T16:53:51.795Z,8.74
2023-03-29T16:56:23.560Z,8.69
2023-03-29T16:58:51.839Z,8.63
2023-03-29T17:01:20.761Z,8.58
2023-03-29T17:03:49.071Z,8.52
2023-03-29T17:06:20.978Z,8.47
2023-03-29T17:08:50.825Z,8.42
2023-03-29T17:11:24.024Z,8.37
2023-03-29T17:13:52.139Z,8.32
2023-03-29T17:16:20.831Z,8.29
2023-03-29T17:18:50.444Z,8.27
2023-03-29T17:21:18.702Z,8.24
2023-03-29T17:23:46.811Z,8.20
2023-03-29T17:26:18.672Z,8.17
2023-03-29T17:28:47.075Z,8.13
2023-03-29T17:31:17.136Z,8.09
2023-03-29T17:33:45.516Z,8.07
2023-03-29T17:36:13.672Z,8.04
2023-03-29T17:38:43.228Z,8.01
2023-03-29T17:41:11.470Z,7.99
2023-03-29T17:43:39.501Z,7.97
2023-03-29T17:46:07.664Z,7.94
2023-03-29T17:48:35.909Z,7.92
2023-03-29T17:51:05.104Z,7.90
2023-03-29T17:53:33.546Z,7.88
2023-03-29T17:56:05.065Z,7.86
2023-03-29T17:58:34.790Z,7.85
2023-03-29T18:01:10.082Z,7.82
2023-03-29T18:03:38.285Z,7.80
2023-03-29T18:06:09.594Z,7.76
2023-03-29T18:08:38.427Z,7.73
2023-03-29T18:11:23.082Z,7.70
2023-03-29T18:13:52.156Z,7.68
2023-03-29T18:16:21.064Z,7.66
2023-03-29T18:18:49.777Z,7.64
2023-03-29T18:21:18.444Z,7.64
2023-03-29T18:23:47.716Z,7.62
2023-03-29T18:26:16.423Z,7.60
2023-03-29T18:28:47.115Z,7.58
2023-03-29T18:31:15.978Z,7.57
2023-03-29T18:33:44.445Z,7.55
2023-03-29T18:36:13.672Z,7.52
2023-03-29T18:38:43.489Z,7.49
2023-03-29T18:41:13.118Z,7.48
2023-03-29T18:43:43.352Z,7.44
2023-03-29T18:46:15.884Z,7.41
2023-03-29T18:48:44.223Z,7.39
2023-03-29T18:51:15.841Z,7.36
2023-03-29T18:53:44.473Z,7.35
2023-03-29T18:56:12.720Z,7.33
2023-03-29T18:58:44.313Z,7.31
2023-03-29T19:01:14.170Z,7.29
2023-03-29T19:03:42.445Z,7.26
2023-03-29T19:06:12.007Z,7.24
2023-03-29T19:08:41.521Z,7.21
2023-03-29T19:11:11.502Z,7.19
2023-03-29T19:13:39.596Z,7.16
2023-03-29T19:16:08.300Z,7.14
2023-03-29T19:18:38.494Z,7.13
2023-03-29T19:21:09.155Z,7.12
2023-03-29T19:23:38.048Z,7.11
2023-03-29T19:26:06.708Z,7.12
2023-03-29T19:28:35.391Z,7.11
2023-03-29T19:31:03.988Z,7.09
2023-03-29T19:33:33.886Z,7.08
2023-03-29T19:36:04.668Z,7.06
2023-03-29T19:38:33.390Z,7.06
2023-03-29T19:41:01.788Z,7.04
2023-03-29T19:43:29.898Z,7.01
2023-03-29T19:46:06.121Z,6.99
2023-03-29T19:48:34.999Z,6.96
2023-03-29T19:51:07.076Z,6.93
2023-03-29T19:53:38.490Z,6.91
2023-03-29T19:56:08.067Z,6.89
2023-03-29T19:58:37.726Z,6.86
2023-03-29T20:01:06.159Z,6.85
2023-03-29T20:03:36.255Z,6.85
2023-03-29T20:06:04.888Z,6.85
2023-03-29T20:08:33.276Z,6.83
2023-03-29T20:11:05.264Z,6.82
2023-03-29T20:13:38.787Z,6.81
2023-03-29T20:16:09.773Z,6.82
2023-03-29T20:18:49.875Z,6.81
2023-03-29T20:21:19.934Z,6.80
2023-03-29T20:23:49.051Z,6.81
2023-03-29T20:26:18.788Z,6.81
2023-03-29T20:28:47.299Z,6.81
2023-03-29T20:31:16.415Z,6.80
2023-03-29T20:33:44.798Z,6.80
2023-03-29T20:36:15.330Z,6.79
2023-03-29T20:38:43.693Z,6.76
2023-03-29T20:41:11.835Z,6.74
2023-03-29T20:43:41.319Z,6.72
2023-03-29T20:46:14.680Z,6.70
2023-03-29T20:48:54.921Z,6.69
2023-03-29T20:51:33.227Z,6.67
2023-03-29T20:54:04.836Z,6.65
2023-03-29T20:56:38.946Z,6.62
2023-03-29T20:59:10.934Z,6.61
2023-03-29T21:01:41.092Z,6.60
2023-03-29T21:04:11.056Z,6.60
2023-03-29T21:06:42.297Z,6.59
2023-03-29T21:09:10.421Z,6.57
2023-03-29T21:11:39.316Z,6.56
2023-03-29T21:14:09.571Z,6.54
2023-03-29T21:16:42.178Z,6.54
2023-03-29T21:19:10.581Z,6.53
2023-03-29T21:21:41.595Z,6.51
2023-03-29T21:24:10.910Z,6.52
2023-03-29T21:26:39.710Z,6.51
2023-03-29T21:29:08.030Z,6.50
2023-03-29T21:31:36.818Z,6.50
2023-03-29T21:34:05.656Z,6.49
2023-03-29T21:36:33.668Z,6.49
2023-03-29T21:39:01.806Z,6.46
2023-03-29T21:41:30.115Z,6.45
2023-03-29T21:43:58.353Z,6.44
2023-03-29T21:46:27.816Z,6.43
2023-03-29T21:48:56.124Z,6.43
2023-03-29T21:51:24.142Z,6.42
2023-03-29T21:53:52.590Z,6.41
2023-03-29T21:56:22.893Z,6.41
2023-03-29T21:58:51.119Z,6.40
2023-03-29T22:01:19.463Z,6.39
2023-03-29T22:03:47.791Z,6.38
2023-03-29T22:06:15.877Z,6.37
2023-03-29T22:08:46.872Z,6.36
2023-03-29T22:11:15.732Z,6.35
2023-03-29T22:13:44.040Z,6.34
2023-03-29T22:16:14.273Z,6.33
2023-03-29T22:18:42.620Z,6.31
2023-03-29T22:21:28.588Z,6.29
2023-03-29T22:23:57.383Z,6.28
2023-03-29T22:26:30.640Z,6.26
2023-03-29T22:28:59.389Z,6.26
2023-03-29T22:31:28.302Z,6.26
2023-03-29T22:33:57.012Z,6.26
2023-03-29T22:36:29.178Z,6.27
2023-03-29T22:38:57.892Z,6.28
2023-03-29T22:41:27.775Z,6.28
2023-03-29T22:43:57.028Z,6.29
2023-03-29T22:46:25.485Z,6.31
2023-03-29T22:48:53.624Z,6.37
2023-03-29T22:51:22.535Z,6.43
2023-03-29T22:53:51.674Z,6.46
2023-03-29T22:56:19.751Z,6.45
2023-03-29T22:58:47.805Z,6.44
2023-03-29T23:01:15.932Z,6.41
2023-03-29T23:03:43.964Z,6.40
2023-03-29T23:06:12.248Z,6.37
2023-03-29T23:08:40.574Z,6.36
2023-03-29T23:11:09.353Z,6.34
2023-03-29T23:13:37.788Z,6.33
2023-03-29T23:16:07.756Z,6.31
2023-03-29T23:18:37.966Z,6.30
2023-03-29T23:21:07.390Z,6.30
2023-03-29T23:23:36.185Z,6.29
2023-03-29T23:26:04.553Z,6.28
2023-03-29T23:28:35.025Z,6.27
2023-03-29T23:31:05.190Z,6.27
2023-03-29T23:33:36.054Z,6.30
2023-03-29T23:36:07.692Z,6.33
2023-03-29T23:38:36.699Z,6.36
2023-03-29T23:41:06.511Z,6.37
2023-03-29T23:43:37.300Z,6.37
2023-03-29T23:46:07.157Z,6.34
2023-03-29T23:48:35.175Z,6.30
2023-03-29T23:51:03.487Z,6.24
2023-03-29T23:53:32.284Z,6.19
2023-03-29T23:56:01.687Z,6.14
2023-03-29T23:58:31.799Z,6.09
